Time;durP1;ratioP1;P1;durP2;ratioP2;P2;SDS_P1;SDS_P2;PMS_P1;PMS_P2;Temp;Humidity;BMP_temperature;BMP_pressure;BME280_temperature;BME280_humidity;BME280_pressure;Samples;Min_cycle;Max_cycle;Signal;HPM_P1;HPM_P2
2023/09/12 00:00:05;;;;;;;36.30;31.60;;;;;;;18.71;64.67;100144.78;111207;1256;24969;-87
2023/09/12 00:03:21;;;;;;;36.60;32.70;;;;;;;18.65;64.85;100141.29;110914;1261;21952;-89
2023/09/12 00:06:05;;;;;;;44.00;33.60;;;;;;;18.62;64.93;100141.92;110755;1265;23008;-89
2023/09/12 00:08:48;;;;;;;40.70;30.80;;;;;;;18.60;65.10;100141.67;109754;1270;21867;-90
2023/09/12 00:11:46;;;;;;;36.00;31.90;;;;;;;18.59;65.29;100135.80;109775;1270;23045;-86
2023/09/12 00:14:21;;;;;;;34.10;30.80;;;;;;;18.60;65.27;100138.19;109613;1271;21971;-87
2023/09/12 00:17:16;;;;;;;36.10;30.20;;;;;;;18.55;65.13;100137.17;109831;1270;22197;-90
2023/09/12 00:19:55;;;;;;;32.40;29.00;;;;;;;18.52;65.23;100141.77;109818;1267;21981;-85
2023/09/12 00:22:50;;;;;;;37.80;30.90;;;;;;;18.47;65.33;100141.41;109672;1273;21978;-89
2023/09/12 00:25:41;;;;;;;40.60;31.00;;;;;;;18.45;65.44;100142.27;109286;1277;22489;-88
2023/09/12 00:28:43;;;;;;;35.80;32.00;;;;;;;18.43;65.45;100140.86;109497;1274;22091;-85
2023/09/12 00:31:21;;;;;;;37.30;31.20;;;;;;;18.40;65.52;100141.95;109699;1271;22740;-86
2023/09/12 00:34:10;;;;;;;35.40;31.10;;;;;;;18.38;65.52;100139.95;109254;1275;21994;-86
2023/09/12 00:37:07;;;;;;;35.60;30.70;;;;;;;18.33;65.49;100141.38;109569;1273;24499;-87
2023/09/12 00:39:51;;;;;;;33.40;29.40;;;;;;;18.30;65.59;100141.82;109139;1276;22075;-87
2023/09/12 00:42:34;;;;;;;34.00;30.30;;;;;;;18.27;65.65;100144.65;108908;1281;21971;-87
2023/09/12 00:45:46;;;;;;;54.70;33.40;;;;;;;18.24;65.75;100145.94;109346;1275;22380;-86
2023/09/12 00:48:45;;;;;;;40.30;30.80;;;;;;;18.17;65.66;100142.04;109273;1275;22186;-84
2023/09/12 00:51:30;;;;;;;35.20;31.50;;;;;;;18.15;65.83;100142.02;109426;1272;23694;-86
2023/09/12 00:54:15;;;;;;;36.70;32.80;;;;;;;18.10;65.79;100139.04;109726;1272;23702;-87
2023/09/12 01:00:40;;;;;;;33.00;29.60;;;;;;;18.02;66.17;100138.35;110300;1264;21959;-87
2023/09/12 01:03:21;;;;;;;34.50;30.20;;;;;;;18.00;66.18;100135.34;110962;1263;22018;-87
2023/09/12 01:06:28;;;;;;;42.30;34.20;;;;;;;17.98;66.20;100136.36;110831;1263;21978;-86
2023/09/12 01:09:18;;;;;;;35.50;31.80;;;;;;;17.98;66.27;100136.02;110490;1263;23125;-85
2023/09/12 01:12:03;;;;;;;39.70;32.60;;;;;;;17.95;66.20;100137.45;110697;1263;22436;-84
2023/09/12 01:14:57;;;;;;;40.50;32.80;;;;;;;17.93;66.24;100138.87;110617;1263;21983;-87
2023/09/12 01:20:51;;;;;;;37.00;33.00;;;;;;;17.80;66.26;100138.11;110541;1262;22053;-88
2023/09/12 01:24:02;;;;;;;35.10;30.60;;;;;;;17.76;66.55;100139.13;110234;1262;22288;-87
2023/09/12 01:27:22;;;;;;;37.90;31.60;;;;;;;17.71;66.60;100141.98;110267;1270;21992;-87
2023/09/12 01:30:41;;;;;;;;;;;;;;;;;;;;;
2023/09/12 01:33:44;;;;;;;37.40;33.60;;;;;;;17.54;66.87;100141.17;109165;1278;22999;-88
2023/09/12 01:36:36;;;;;;;37.40;33.50;;;;;;;17.52;67.04;100143.44;109310;1271;22867;-87
2023/09/12 01:39:24;;;;;;;37.80;32.20;;;;;;;17.51;67.15;100143.73;109743;1270;21974;-84
2023/09/12 01:42:19;;;;;;;;;;;;;;;;;;;;;
2023/09/12 01:45:14;;;;;;;38.70;34.60;;;;;;;17.46;67.21;100146.33;109729;1270;22283;-87
2023/09/12 01:48:10;;;;;;;38.60;31.70;;;;;;;17.45;67.36;100146.75;109889;1265;23035;-88
2023/09/12 01:50:49;;;;;;;39.00;33.20;;;;;;;17.42;67.43;100144.69;110650;1264;22454;-84
2023/09/12 01:53:39;;;;;;;;;;;;;;;17.43;67.65;100144.65;110719;1264;23863;-86
2023/09/12 01:56:33;;;;;;;36.00;32.30;;;;;;;17.35;67.85;100147.80;110693;1264;21979;-88
2023/09/12 01:59:14;;;;;;;34.00;30.50;;;;;;;17.34;67.50;100145.61;110558;1260;23602;-88
2023/09/12 02:01:54;;;;;;;37.90;34.00;;;;;;;17.29;67.38;100138.41;110398;1265;22230;-88
2023/09/12 02:04:53;;;;;;;36.80;33.00;;;;;;;17.32;67.42;100146.23;110636;1265;23080;-86
2023/09/12 02:07:48;;;;;;;37.10;33.50;;;;;;;17.30;67.64;100144.64;111227;1256;22137;-86
2023/09/12 02:10:34;;;;;;;36.00;32.10;;;;;;;17.28;67.60;100144.80;111339;1256;21953;-87
2023/09/12 02:13:09;;;;;;;35.00;31.50;;;;;;;17.29;67.77;100145.95;111299;1256;23033;-87
2023/09/12 02:16:04;;;;;;;35.60;31.80;;;;;;;17.29;67.67;100145.45;110527;1259;23587;-87
2023/09/12 02:18:49;;;;;;;39.20;35.20;;;;;;;17.25;67.55;100141.84;110879;1262;21954;-87
2023/09/12 02:21:33;;;;;;;35.90;32.40;;;;;;;17.20;67.49;100140.23;110974;1262;21992;-88
2023/09/12 02:24:16;;;;;;;39.70;35.60;;;;;;;17.15;67.69;100143.59;111138;1262;21962;-89
2023/09/12 02:26:58;;;;;;;38.80;34.90;;;;;;;17.11;67.91;100145.06;110846;1262;22064;-87
2023/09/12 02:29:52;;;;;;;37.80;33.90;;;;;;;17.12;68.26;100142.88;110801;1262;21974;-86
2023/09/12 02:32:31;;;;;;;37.10;32.70;;;;;;;17.12;68.04;100145.14;110131;1268;23073;-90
2023/09/12 02:35:13;;;;;;;38.60;34.70;;;;;;;17.12;67.96;100140.59;110316;1268;21968;-87
2023/09/12 02:38:05;;;;;;;37.80;33.40;;;;;;;17.09;68.08;100140.95;110152;1268;21980;-88
2023/09/12 02:40:59;;;;;;;39.00;34.00;;;;;;;17.03;68.07;100141.91;110377;1268;21979;-87
2023/09/12 02:43:35;;;;;;;39.10;34.40;;;;;;;17.02;68.16;100145.50;110140;1268;22008;-87
2023/09/12 02:46:20;;;;;;;37.80;33.90;;;;;;;17.02;68.19;100141.63;110055;1268;23828;-89
2023/09/12 02:49:01;;;;;;;39.00;35.10;;;;;;;17.00;68.16;100146.72;110239;1268;22440;-86
2023/09/12 02:51:44;;;;;;;39.80;35.80;;;;;;;16.96;68.10;100149.27;110812;1262;22006;-85
2023/09/12 02:54:15;;;;;;;39.70;35.10;;;;;;;16.89;68.21;100148.67;111126;1256;23136;-85
2023/09/12 02:56:52;;;;;;;39.20;35.00;;;;;;;16.85;68.29;100150.65;111306;1256;22951;-88
2023/09/12 02:59:44;;;;;;;39.80;34.40;;;;;;;16.81;68.47;100153.20;111126;1256;23834;-84
2023/09/12 03:02:23;;;;;;;44.40;37.10;;;;;;;16.79;68.76;100153.88;110693;1260;23056;-89
2023/09/12 03:05:21;;;;;;;38.60;34.20;;;;;;;16.80;68.95;100148.38;110581;1263;21984;-89
2023/09/12 03:08:16;;;;;;;39.80;35.60;;;;;;;16.75;69.02;100143.57;110651;1263;24100;-89
2023/09/12 03:11:03;;;;;;;41.60;34.80;;;;;;;16.82;69.02;100152.46;110279;1267;21982;-88
2023/09/12 03:13:53;;;;;;;39.30;35.30;;;;;;;16.81;68.87;100150.77;110464;1267;21997;-86
2023/09/12 03:16:37;;;;;;;39.20;35.50;;;;;;;16.78;68.79;100145.34;110381;1262;23034;-87
2023/09/12 03:19:10;;;;;;;39.40;35.30;;;;;;;16.78;68.71;100149.21;109882;1270;21981;-86
2023/09/12 03:22:08;;;;;;;39.40;34.40;;;;;;;16.73;68.71;100141.09;110467;1264;23046;-88
2023/09/12 03:24:45;;;;;;;39.00;34.80;;;;;;;16.73;68.83;100144.81;110432;1260;22981;-87
2023/09/12 03:27:33;;;;;;;37.00;33.10;;;;;;;16.70;68.86;100145.52;110468;1264;21944;-88
2023/09/12 03:30:14;;;;;;;38.40;34.70;;;;;;;16.70;69.09;100147.45;110576;1264;22446;-87
2023/09/12 03:33:07;;;;;;;37.90;34.00;;;;;;;16.71;69.05;100146.84;110593;1264;23088;-88
2023/09/12 03:36:08;;;;;;;47.80;42.10;;;;;;;16.67;69.02;100142.52;110405;1264;23081;-89
2023/09/12 03:39:08;;;;;;;37.20;33.30;;;;;;;16.63;69.01;100144.06;110790;1261;21985;-81
2023/09/12 03:41:53;;;;;;;35.90;32.10;;;;;;;16.61;68.99;100141.20;108478;1256;3032494;-79
2023/09/12 03:44:55;;;;;;;36.70;33.10;;;;;;;16.55;68.91;100140.33;111220;1261;21991;-85
2023/09/12 03:47:34;;;;;;;38.90;33.00;;;;;;;16.51;68.99;100147.48;110490;1267;23711;-86
2023/09/12 03:50:20;;;;;;;37.20;33.20;;;;;;;16.49;69.13;100148.61;110401;1267;22170;-88
2023/09/12 03:53:04;;;;;;;40.90;36.80;;;;;;;16.48;69.30;100151.20;110353;1266;21973;-87
2023/09/12 03:55:48;;;;;;;42.10;37.80;;;;;;;16.44;69.41;100151.45;110214;1266;22392;-89
2023/09/12 03:58:32;;;;;;;40.80;37.00;;;;;;;16.40;69.58;100148.52;110563;1266;21988;-85
2023/09/12 04:01:18;;;;;;;38.70;35.10;;;;;;;16.39;69.78;100150.00;110602;1266;21974;-89
2023/09/12 04:03:58;;;;;;;40.90;37.10;;;;;;;16.39;69.77;100150.14;110829;1261;23697;-89
2023/09/12 04:06:36;;;;;;;39.40;35.40;;;;;;;16.39;69.82;100154.01;111318;1255;23608;-89
2023/09/12 04:09:27;;;;;;;41.80;37.40;;;;;;;16.40;69.78;100151.55;111398;1255;21953;-87
2023/09/12 04:12:21;;;;;;;41.80;37.80;;;;;;;16.38;69.88;100149.57;111461;1255;23000;-89
2023/09/12 04:15:08;;;;;;;39.80;35.80;;;;;;;16.38;69.98;100152.50;111470;1255;21975;-89
2023/09/12 04:17:48;;;;;;;38.90;35.10;;;;;;;16.42;70.02;100159.14;111339;1255;21958;-86
2023/09/12 04:20:30;;;;;;;39.80;35.50;;;;;;;16.43;69.96;100155.35;111347;1255;21927;-87
2023/09/12 04:23:10;;;;;;;37.30;33.40;;;;;;;16.45;69.85;100154.89;111317;1255;21967;-87
2023/09/12 04:25:49;;;;;;;42.30;38.00;;;;;;;16.46;69.77;100152.71;111131;1255;22166;-88
2023/09/12 04:28:46;;;;;;;42.10;38.10;;;;;;;16.47;69.87;100154.96;111226;1256;21958;-86
2023/09/12 04:31:27;;;;;;;41.80;37.40;;;;;;;16.47;69.85;100149.67;111217;1255;23663;-88
2023/09/12 04:34:20;;;;;;;39.60;35.70;;;;;;;16.46;69.64;100149.40;111151;1255;21959;-85
2023/09/12 04:37:05;;;;;;;39.80;35.80;;;;;;;16.41;69.62;100150.54;111276;1255;21988;-84
2023/09/12 04:39:58;;;;;;;41.60;37.20;;;;;;;16.36;69.62;100146.30;111297;1255;23686;-86
2023/09/12 04:42:33;;;;;;;41.70;36.80;;;;;;;16.34;69.76;100148.41;111383;1251;23016;-87
2023/09/12 04:45:11;;;;;;;42.00;38.20;;;;;;;16.37;70.02;100146.40;110552;1261;21986;-90
2023/09/12 04:47:50;;;;;;;41.20;36.70;;;;;;;16.41;69.91;100144.97;110365;1267;22004;-89
2023/09/12 04:50:31;;;;;;;44.30;36.90;;;;;;;16.41;69.91;100146.52;110490;1267;21971;-85
2023/09/12 04:53:34;;;;;;;;;;;;;;;16.44;69.98;100150.06;110122;1267;21950;-85
2023/09/12 04:56:24;;;;;;;40.30;36.10;;;;;;;16.39;70.32;100152.79;110459;1267;22756;-86
2023/09/12 04:59:27;;;;;;;42.20;38.10;;;;;;;16.44;70.35;100148.95;109253;1276;24064;-89
2023/09/12 05:02:22;;;;;;;41.70;36.70;;;;;;;16.48;69.97;100153.09;109375;1276;21951;-86
2023/09/12 05:05:22;;;;;;;41.00;36.60;;;;;;;16.53;70.14;100156.44;109747;1267;21972;-88
2023/09/12 05:08:01;;;;;;;42.20;37.80;;;;;;;16.59;69.79;100158.01;110098;1267;21978;-84
2023/09/12 05:10:53;;;;;;;40.70;36.30;;;;;;;16.59;69.73;100160.85;110076;1267;22140;-86
2023/09/12 05:13:37;;;;;;;44.20;37.20;;;;;;;16.62;69.77;100155.16;110438;1267;22513;-86
2023/09/12 05:16:25;;;;;;;42.70;36.40;;;;;;;16.67;69.61;100160.32;110472;1262;22008;-87
2023/09/12 05:19:17;;;;;;;41.40;37.40;;;;;;;16.69;69.53;100163.13;110844;1262;21980;-88
2023/09/12 05:21:56;;;;;;;40.50;36.70;;;;;;;16.73;69.43;100165.17;110694;1262;23621;-84
2023/09/12 05:24:39;;;;;;;43.90;39.00;;;;;;;16.75;69.25;100167.29;110572;1262;21943;-89
2023/09/12 05:28:26;;;;;;;48.70;41.50;;;;;;;16.78;69.32;100170.30;111830;1262;21974;-91
2023/09/12 05:31:53;;;;;;;41.20;37.20;;;;;;;16.79;69.37;100169.52;111989;1256;21987;-90
2023/09/12 05:34:49;;;;;;;43.60;39.20;;;;;;;16.86;69.40;100170.62;111606;1256;22011;-86
2023/09/12 05:37:39;;;;;;;;;;;;;;;16.95;69.16;100166.88;111165;1256;21947;-85
2023/09/12 05:40:55;;;;;;;43.80;39.50;;;;;;;16.94;69.28;100166.23;111183;1256;22035;-85
2023/09/12 05:43:45;;;;;;;45.30;41.10;;;;;;;17.04;69.20;100165.24;110383;1266;22761;-86
2023/09/12 05:46:41;;;;;;;;;;;;;;;;;;;;;
2023/09/12 05:49:37;;;;;;;46.90;42.60;;;;;;;17.23;68.91;100169.75;110234;1266;21971;-83
2023/09/12 05:52:41;;;;;;;;;;;;;;;;;;;;;
2023/09/12 05:55:34;;;;;;;49.40;44.70;;;;;;;17.46;68.67;100174.34;109771;1272;22010;-85
2023/09/12 05:58:27;;;;;;;48.60;42.60;;;;;;;17.61;68.59;100175.95;109676;1272;23063;-83
2023/09/12 06:01:45;;;;;;;48.80;44.30;;;;;;;17.73;68.39;100167.33;110192;1254;21978;-85
2023/09/12 06:04:36;;;;;;;49.30;44.80;;;;;;;17.96;68.19;100175.62;109570;1272;24458;-85
2023/09/12 06:07:38;;;;;;;46.90;42.70;;;;;;;18.15;67.82;100180.96;109192;1277;22454;-84
2023/09/12 06:10:54;;;;;;;44.50;40.60;;;;;;;18.34;67.51;100179.06;109055;1276;22425;-85
2023/09/12 06:13:37;;;;;;;42.70;38.20;;;;;;;18.55;67.23;100177.50;108886;1277;22007;-84
2023/09/12 06:16:44;;;;;;;41.10;36.50;;;;;;;18.79;66.86;100174.48;109031;1281;22090;-86
2023/09/12 06:19:49;;;;;;;40.30;36.80;;;;;;;19.06;66.27;100174.27;108894;1269;21979;-83
2023/09/12 06:22:35;;;;;;;40.10;36.60;;;;;;;19.34;65.74;100181.83;109093;1275;22003;-86
2023/09/12 06:25:50;;;;;;;39.80;36.10;;;;;;;19.64;65.13;100184.61;109590;1271;21946;-86
2023/09/12 06:28:49;;;;;;;38.20;34.60;;;;;;;20.00;64.62;100183.05;110138;1267;22001;-86
2023/09/12 06:31:27;;;;;;;38.80;35.00;;;;;;;20.34;63.87;100179.91;110474;1262;21965;-86
2023/09/12 06:34:14;;;;;;;37.30;33.90;;;;;;;20.72;62.92;100177.91;111031;1255;21963;-86
2023/09/12 06:37:06;;;;;;;37.60;33.90;;;;;;;21.14;62.07;100180.60;111300;1244;23005;-86
2023/09/12 06:39:55;;;;;;;36.30;32.80;;;;;;;21.58;61.09;100180.36;111308;1255;21982;-84
2023/09/12 06:43:01;;;;;;;;;;;;;;;;;;;;;
2023/09/12 06:45:45;;;;;;;29.90;27.00;;;;;;;22.54;59.16;100174.76;110134;1269;21988;-85
2023/09/12 06:48:44;;;;;;;36.30;29.20;;;;;;;23.11;57.81;100180.59;110144;1268;23803;-84
2023/09/12 06:51:42;;;;;;;31.60;28.50;;;;;;;23.64;56.47;100182.84;109876;1268;22038;-83
2023/09/12 06:54:34;;;;;;;;;;;;;;;;;;;;;
2023/09/12 06:57:53;;;;;;;31.50;27.10;;;;;;;24.55;53.65;100178.65;109646;1273;22405;-83
2023/09/12 07:05:15;;;;;;;29.70;26.90;;;;;;;25.53;51.03;100183.23;110518;1267;21965;-85
2023/09/12 07:08:10;;;;;;;30.90;27.40;;;;;;;25.89;50.27;100186.23;110068;1267;22006;-84
2023/09/12 07:11:05;;;;;;;27.20;24.40;;;;;;;26.21;49.23;100179.56;110026;1267;21983;-84
2023/09/12 07:13:47;;;;;;;28.90;26.00;;;;;;;26.57;48.67;100179.80;109733;1267;22474;-84
2023/09/12 07:16:55;;;;;;;26.60;23.90;;;;;;;26.84;48.12;100177.74;109995;1267;24251;-84
2023/09/12 07:20:11;;;;;;;28.90;22.90;;;;;;;27.31;47.17;100179.17;109228;1275;21970;-83
2023/09/12 07:23:06;;;;;;;27.30;21.80;;;;;;;27.74;46.82;100173.52;109319;1275;22010;-88
2023/09/12 07:27:06;;;;;;;;;;;;;;;;;;;;;
2023/09/12 07:30:32;;;;;;;;;;;;;;;;;;;;;
2023/09/12 07:33:31;;;;;;;30.00;19.60;;;;;;;28.87;44.41;100170.02;109060;1279;23026;-80
2023/09/12 07:36:53;;;;;;;19.50;17.40;;;;;;;29.09;43.17;100174.34;109034;1279;22415;-80
2023/09/12 07:40:23;;;;;;;19.80;17.60;;;;;;;29.16;41.98;100173.98;109981;1268;21976;-77
2023/09/12 07:44:46;;;;;;;;;;;;;;;;;;;;;
2023/09/12 08:15:45;;;;;;;;;;;;;;;;;;;;;
2023/09/12 08:23:48;;;;;;;;;;;;;;;;;;;;;
2023/09/12 08:38:11;;;;;;;15.70;10.20;;;;;;;33.39;32.11;100172.27;110460;1264;549772;-82
2023/09/12 08:41:18;;;;;;;12.50;9.10;;;;;;;33.74;30.78;100173.41;108952;1246;4366971;-85
2023/09/12 08:45:05;;;;;;;;;;;;;;;;;;;;;
2023/09/12 08:53:10;;;;;;;14.80;9.00;;;;;;;33.15;31.40;100168.77;111494;1254;22067;-83
2023/09/12 08:56:21;;;;;;;9.50;8.30;;;;;;;33.24;31.58;100165.22;111095;1257;22087;-87
2023/09/12 08:59:30;;;;;;;8.80;7.40;;;;;;;33.22;31.17;100167.39;111059;1257;21969;-82
2023/09/12 09:02:44;;;;;;;9.70;7.00;;;;;;;33.16;30.82;100167.48;111067;1257;24325;-81
2023/09/12 09:06:44;;;;;;;10.60;6.80;;;;;;;33.22;30.77;100170.66;110204;1264;23113;-82
2023/09/12 09:10:54;;;;;;;;;;;;;;;;;;;;;
2023/09/12 09:13:42;;;;;;;10.60;7.20;;;;;;;33.07;30.23;100166.30;109298;1271;21998;-81
2023/09/12 09:46:55;;;;;;;14.50;7.50;;;;;;;34.08;27.89;100155.98;108974;1282;22016;-80
2023/09/12 09:54:39;;;;;;;9.70;8.80;;;;;;;33.80;28.20;100155.88;104420;1287;5470722;-80
2023/09/12 09:58:00;;;;;;;9.50;6.90;;;;;;;33.71;27.89;100150.24;108040;1296;23112;-81
2023/09/12 10:04:40;;;;;;;6.90;6.30;;;;;;;33.45;27.92;100151.93;107356;1298;23377;-78
2023/09/12 10:08:00;;;;;;;8.20;7.50;;;;;;;33.35;28.09;100146.89;107201;1298;22393;-78
2023/09/12 10:11:00;;;;;;;10.00;6.10;;;;;;;33.37;28.58;100150.08;107457;1295;22045;-76
2023/09/12 10:14:10;;;;;;;6.70;6.00;;;;;;;33.19;28.41;100149.38;107630;1295;23622;-76
2023/09/12 10:27:25;;;;;;;;;;;;;;;;;;;;;
2023/09/12 10:29:59;;;;;;;7.20;6.00;;;;;;;33.79;28.40;100143.39;108903;1283;22001;-81
2023/09/12 10:34:43;;;;;;;;;;;;;;;;;;;;;
2023/09/12 10:39:35;;;;;;;8.10;5.70;;;;;;;33.98;27.47;100142.40;107836;1293;22014;-80
2023/09/12 10:42:14;;;;;;;;;;;;;;;;;;;;;
2023/09/12 10:54:01;;;;;;;;;;;;;;;;;;;;;
2023/09/12 10:57:13;;;;;;;7.60;6.80;;;;;;;33.75;28.12;100141.52;106297;1312;22030;-82
2023/09/12 11:00:27;;;;;;;10.60;7.40;;;;;;;33.56;28.36;100136.09;106097;1313;22030;-79
2023/09/12 11:05:16;;;;;;;;;;;;;;;;;;;;;
2023/09/12 11:13:03;;;;;;;;;;;;;;;;;;;;;
2023/09/12 11:21:51;;;;;;;6.90;6.40;;;;;;;31.80;30.36;100126.43;102164;1286;21990;-78
2023/09/12 11:49:47;;;;;;;;;;;;;;;;;;;;;
2023/09/12 11:58:31;;;;;;;10.00;7.30;;;;;;;31.33;30.61;100109.48;110802;1261;21994;-80
2023/09/12 12:02:32;;;;;;;;;;;;;;;;;;;;;
2023/09/12 12:06:41;;;;;;;;;;;;;;;;;;;;;
2023/09/12 12:10:29;;;;;;;;;;;;;;;;;;;;;
2023/09/12 12:36:08;;;;;;;;;;;;;;;;;;;;;
2023/09/12 12:40:37;;;;;;;;;;;;;;;;;;;;;
2023/09/12 12:49:28;;;;;;;;;;;;;;;;;;;;;
2023/09/12 13:07:51;;;;;;;13.80;6.90;;;;;;;31.85;28.09;100079.07;108333;1284;548698;-81
2023/09/12 13:12:45;;;;;;;;;;;;;;;;;;;;;
2023/09/12 13:16:58;;;;;;;;;;;;;;;;;;;;;
2023/09/12 13:20:16;;;;;;;13.30;9.70;;;;;;;30.94;28.49;100071.59;108512;1285;22379;-82
2023/09/12 13:24:58;;;;;;;;;;;;;;;;;;;;;
2023/09/12 13:31:32;;;;;;;11.40;6.40;;;;;;;30.52;29.29;100059.65;108313;1288;22845;-79
2023/09/12 13:34:28;;;;;;;12.40;7.90;;;;;;;30.52;29.29;100066.91;108387;1288;23702;-80
2023/09/12 13:37:01;;;;;;;9.10;7.10;;;;;;;30.50;29.39;100068.34;107949;1294;22024;-80
2023/09/12 13:39:29;;;;;;;8.20;6.80;;;;;;;30.47;29.47;100072.38;107328;1298;23079;-79
2023/09/12 13:43:11;;;;;;;10.50;9.20;;;;;;;30.45;29.18;100075.63;107764;1288;22018;-80
2023/09/12 13:45:31;;;;;;;9.80;8.80;;;;;;;30.36;29.15;100070.20;108272;1288;22024;-79
2023/09/12 13:49:02;;;;;;;;;;;;;;;;;;;;;
2023/09/12 13:51:56;;;;;;;10.10;8.10;;;;;;;30.18;29.30;100063.98;108188;1287;23092;-81
2023/09/12 13:55:13;;;;;;;11.00;7.30;;;;;;;30.12;29.56;100063.25;108506;1282;22037;-80
2023/09/12 13:58:08;;;;;;;12.40;7.50;;;;;;;30.05;29.60;100066.54;108751;1283;22012;-81
2023/09/12 14:01:07;;;;;;;7.70;6.10;;;;;;;30.03;29.53;100063.84;108647;1286;23712;-83
2023/09/12 14:05:02;;;;;;;;;;;;;;;;;;;;;
2023/09/12 14:12:10;;;;;;;13.00;7.00;;;;;;;30.05;29.60;100060.38;106601;1301;22075;-82
2023/09/12 14:15:25;;;;;;;10.20;7.80;;;;;;;30.04;29.62;100063.39;106704;1305;22240;-79
2023/09/12 14:19:14;;;;;;;10.20;7.20;;;;;;;30.00;29.64;100068.52;106987;1305;22037;-82
2023/09/12 14:42:05;;;;;;;7.50;6.50;;;;;;;31.17;27.76;100064.29;110795;1259;559801;-83
2023/09/12 14:45:58;;;;;;;;;;;;;;;;;;;;;
2023/09/12 14:49:38;;;;;;;8.40;6.60;;;;;;;30.29;28.97;100070.83;111801;1250;23697;-80
2023/09/12 14:53:48;;;;;;;;;;;;;;;;;;;;;
2023/09/12 14:58:35;;;;;;;;;;;;;;;;;;;;;
2023/09/12 15:02:15;;;;;;;14.00;7.50;;;;;;;29.79;29.67;100068.52;111277;1253;23804;-78
2023/09/12 15:05:47;;;;;;;16.00;8.60;;;;;;;29.74;30.09;100069.48;111604;1252;21986;-80
2023/09/12 15:12:37;;;;;;;;;;;;;;;;;;;;;
2023/09/12 15:15:53;;;;;;;15.80;8.10;;;;;;;29.54;30.47;100064.25;110631;1263;22009;-80
2023/09/12 15:26:40;;;;;;;11.20;6.70;;;;;;;29.45;30.38;100068.46;109308;1273;22016;-79
2023/09/12 15:32:06;;;;;;;10.00;7.10;;;;;;;29.40;30.77;100067.42;110243;1266;21982;-79
2023/09/12 15:35:20;;;;;;;10.70;8.00;;;;;;;29.38;31.21;100068.59;110199;1266;21973;-79
2023/09/12 15:38:27;;;;;;;9.70;6.80;;;;;;;29.29;31.37;100069.87;110011;1267;22839;-79
2023/09/12 15:41:52;;;;;;;;;;;;;;;;;;;;;
2023/09/12 15:45:05;;;;;;;9.90;8.90;;;;;;;29.15;32.52;100067.66;110107;1266;22079;-78
2023/09/12 15:48:25;;;;;;;;;;;;;;;;;;;;;
2023/09/12 15:52:04;;;;;;;;;;;;;;;;;;;;;
2023/09/12 15:55:51;;;;;;;;;;;;;;;;;;;;;
2023/09/12 15:58:59;;;;;;;;;;;;;;;;;;;;;
2023/09/12 16:03:44;;;;;;;;;;;;;;;;;;;;;
2023/09/12 16:06:56;;;;;;;8.90;7.00;;;;;;;28.52;34.14;100069.35;111027;1256;22004;-76
2023/09/12 16:10:36;;;;;;;12.50;6.90;;;;;;;28.46;33.96;100068.67;110756;1260;24362;-77
2023/09/12 16:14:16;;;;;;;;;;;;;;;;;;;;;
2023/09/12 16:17:55;;;;;;;12.70;7.70;;;;;;;28.45;33.35;100065.20;110877;1259;23623;-76
2023/09/12 16:21:15;;;;;;;9.60;7.60;;;;;;;28.33;33.62;100066.40;110930;1255;22011;-76
2023/09/12 16:24:44;;;;;;;17.30;7.70;;;;;;;28.19;34.02;100064.31;110777;1260;21977;-78
2023/09/12 16:28:23;;;;;;;;;;;;;;;;;;;;;
2023/09/12 16:31:38;;;;;;;12.80;7.30;;;;;;;28.08;34.36;100062.02;111143;1257;21993;-78
2023/09/12 16:35:07;;;;;;;11.00;6.70;;;;;;;28.04;34.21;100059.39;111330;1252;23712;-78
2023/09/12 16:38:34;;;;;;;;;;;;;;;;;;;;;
2023/09/12 16:42:11;;;;;;;;;;;;;;;;;;;;;
2023/09/12 16:45:11;;;;;;;13.20;8.70;;;;;;;27.84;35.08;100062.98;112591;1242;21999;-77
2023/09/12 16:48:56;;;;;;;15.90;8.90;;;;;;;27.78;35.34;100063.42;112624;1239;23578;-79
2023/09/12 16:52:12;;;;;;;16.80;9.00;;;;;;;27.72;35.51;100058.46;112610;1242;21962;-78
2023/09/12 16:56:04;;;;;;;20.10;9.70;;;;;;;27.66;35.66;100056.95;112777;1236;23003;-79
2023/09/12 16:59:28;;;;;;;16.20;8.40;;;;;;;27.56;36.08;100056.14;113190;1237;22015;-78
2023/09/12 17:02:28;;;;;;;12.40;8.20;;;;;;;27.49;36.47;100051.96;113241;1231;21942;-78
2023/09/12 17:09:03;;;;;;;14.20;8.20;;;;;;;27.29;36.92;100047.62;112982;1237;23603;-80
2023/09/12 17:11:50;;;;;;;18.60;9.90;;;;;;;27.22;37.18;100047.16;113168;1237;21942;-77
2023/09/12 17:14:26;;;;;;;26.30;10.70;;;;;;;27.15;37.21;100044.04;112405;1242;22045;-79
2023/09/12 17:16:58;;;;;;;16.10;9.50;;;;;;;27.07;37.33;100044.49;112179;1242;21956;-80
2023/09/12 17:19:34;;;;;;;20.20;11.30;;;;;;;26.98;37.50;100046.27;111815;1248;21956;-78
2023/09/12 17:22:20;;;;;;;20.90;12.40;;;;;;;26.89;37.82;100046.90;111718;1248;22028;-78
2023/09/12 17:30:55;;;;;;;;;;;;;;;;;;;;;
2023/09/12 17:35:35;;;;;;;;;;;;;;;;;;;;;
2023/09/12 17:44:02;;;;;;;21.50;10.50;;;;;;;25.89;40.88;100053.11;109356;1276;23026;-86
2023/09/12 18:03:39;;;;;;;33.20;17.20;;;;;;;26.38;40.80;100069.16;110710;1254;547946;-83
2023/09/12 18:43:59;;;;;;;33.20;17.30;;;;;;;24.40;45.72;100097.29;111320;1259;24202;-84
2023/09/12 18:47:31;;;;;;;26.60;16.60;;;;;;;24.09;46.53;100098.36;110524;1267;22025;-85
2023/09/12 18:52:50;;;;;;;29.30;16.60;;;;;;;23.84;47.30;100098.20;110549;1267;22745;-85
2023/09/12 19:01:16;;;;;;;;;;;;;;;;;;;;;
2023/09/12 19:16:20;;;;;;;36.50;23.90;;;;;;;24.24;47.57;100101.46;111014;1259;549593;-85
2023/09/12 19:21:26;;;;;;;;;;;;;;;;;;;;;
2023/09/12 19:25:48;;;;;;;;;;;;;;;;;;;;;
2023/09/12 19:30:26;;;;;;;;;;;;;;;;;;;;;
2023/09/12 19:33:59;;;;;;;29.80;25.00;;;;;;;22.88;51.00;100103.16;110856;1261;21977;-82
2023/09/12 19:36:47;;;;;;;38.90;26.20;;;;;;;22.84;51.19;100104.81;110595;1261;23741;-82
2023/09/12 19:40:42;;;;;;;;;;;;;;;;;;;;;
2023/09/12 19:43:41;;;;;;;60.80;45.60;;;;;;;22.66;51.85;100099.88;110746;1260;22019;-79
2023/09/12 19:47:09;;;;;;;57.90;35.00;;;;;;;22.61;51.87;100098.01;110138;1267;23643;-77
2023/09/12 20:11:40;;;;;;;27.30;21.50;;;;;;;23.37;50.92;100101.46;110533;1253;548173;-81
2023/09/12 20:16:44;;;;;;;;;;;;;;;;;;;;;
2023/09/12 20:43:35;;;;;;;;;;;;;;;;;;;;;
2023/09/12 20:46:47;;;;;;;30.20;23.60;;;;;;;22.76;52.21;100098.80;111231;1236;3116444;-85
2023/09/12 20:49:55;;;;;;;;;;;;;;;;;;;;;
2023/09/12 20:53:43;;;;;;;30.10;21.70;;;;;;;21.90;54.12;100104.79;112878;1241;23057;-82
2023/09/12 20:57:32;;;;;;;34.90;20.50;;;;;;;21.70;54.98;100107.98;111793;1249;22030;-86
2023/09/12 21:01:10;;;;;;;35.50;23.70;;;;;;;21.54;55.43;100107.27;112254;1249;22007;-85
2023/09/12 21:04:50;;;;;;;36.10;26.20;;;;;;;21.38;55.61;100108.08;112179;1249;23023;-84
2023/09/12 21:10:59;;;;;;;34.80;27.70;;;;;;;21.21;55.84;100108.70;111735;1256;22978;-88
2023/09/12 21:13:54;;;;;;;32.20;26.40;;;;;;;21.12;55.74;100108.73;111123;1260;21802;-85
2023/09/12 21:16:50;;;;;;;32.80;25.10;;;;;;;21.07;55.73;100107.05;111196;1259;21993;-85
2023/09/12 21:21:13;;;;;;;30.10;24.80;;;;;;;20.99;55.81;100109.67;111410;1261;21986;-89
2023/09/12 21:23:58;;;;;;;37.30;31.00;;;;;;;20.92;55.99;100109.73;111017;1257;22012;-87
2023/09/12 21:29:59;;;;;;;69.80;62.50;;;;;;;20.87;56.45;100108.73;112083;1248;22014;-87
2023/09/12 21:33:32;;;;;;;44.20;39.50;;;;;;;20.84;56.83;100111.27;112446;1244;21938;-85
2023/09/12 21:42:41;;;;;;;54.50;47.00;;;;;;;20.65;57.37;100107.95;111329;1257;21980;-88
2023/09/12 21:47:23;;;;;;;;;;;;;;;;;;;;;
2023/09/12 21:51:18;;;;;;;45.60;36.80;;;;;;;20.57;58.14;100103.84;109854;1271;22473;-85
2023/09/12 21:55:10;;;;;;;;;;;;;;;;;;;;;
2023/09/12 22:01:46;;;;;;;35.70;28.00;;;;;;;20.76;58.13;100107.77;108432;1291;544218;-87
2023/09/12 22:05:22;;;;;;;31.40;26.00;;;;;;;20.66;58.16;100104.30;110344;1267;21970;-87
2023/09/12 22:09:00;;;;;;;34.10;25.60;;;;;;;20.54;58.52;100101.03;110651;1266;21973;-86
2023/09/12 22:24:57;;;;;;;32.10;25.30;;;;;;;20.17;59.29;100099.19;108002;1297;22897;-88
2023/09/12 22:31:35;;;;;;;;;;;;;;;;;;;;;
2023/09/12 22:39:44;;;;;;;;;;;;;;;;;;;;;